Terminal Aerodrome Forecast
Issued by NWS

Home | Current Version | Previous Version | Text Only | Print | Product List | Glossary On
Versions: 1 2 3 4 5 6 7 8 9 10 11 12 13 14 15 16 17 18 19 20 21 22 23 24 25
000
FTAK31 PAFC 101133
TAFAGK
TAF
PAGK 101133Z 1012/1112 30005KT P6SM -RA SCT030 OVC050
      TEMPO 1014/1018 5SM -RA BR FEW015 BKN030=

USA.gov is the U.S. government's official web portal to all federal, state and local government web resources and services.